Time;durP1;ratioP1;P1;durP2;ratioP2;P2;SDS_P1;SDS_P2;PMS_P1;PMS_P2;Temp;Humidity;BMP_temperature;BMP_pressure;BME280_temperature;BME280_humidity;BME280_pressure;Samples;Min_cycle;Max_cycle;Signal;HPM_P1;HPM_P2
2024/03/02 00:00:43;;;;;;;227.77;66.90;;;;;;;;;;4985807;28;20185;-45
2024/03/02 00:03:09;;;;;;;228.47;69.73;;;;;;;;;;4989002;28;20471;-45
2024/03/02 00:05:36;;;;;;;229.00;69.85;;;;;;;;;;4987498;28;20489;-45
2024/03/02 00:08:02;;;;;;;229.13;70.55;;;;;;;;;;4990729;28;20195;-44
2024/03/02 00:10:35;;;;;;;228.35;67.07;;;;;;;;;;4989437;28;20271;-44
2024/03/02 00:13:01;;;;;;;226.32;65.35;;;;;;;;;;4986549;28;20213;-43
2024/03/02 00:15:45;;;;;;;229.02;68.05;;;;;;;;;;4985027;28;20180;-44
2024/03/02 00:18:14;;;;;;;224.90;64.25;;;;;;;;;;4970938;28;20208;-45
2024/03/02 00:20:41;;;;;;;228.52;67.43;;;;;;;;;;4990506;28;20181;-45
2024/03/02 00:23:08;;;;;;;226.82;66.07;;;;;;;;;;4972614;28;20263;-44
2024/03/02 00:25:36;;;;;;;224.63;63.80;;;;;;;;;;4987806;28;20275;-44
2024/03/02 00:28:02;;;;;;;225.98;66.15;;;;;;;;;;4989438;28;20357;-45
2024/03/02 00:30:54;;;;;;;228.27;67.80;;;;;;;;;;4985993;28;20234;-45
2024/03/02 00:33:21;;;;;;;224.65;64.90;;;;;;;;;;4980513;28;20219;-44
2024/03/02 00:35:47;;;;;;;226.75;66.10;;;;;;;;;;4989569;28;20200;-44
2024/03/02 00:38:17;;;;;;;227.63;68.18;;;;;;;;;;4988562;28;20207;-45
2024/03/02 00:40:44;;;;;;;226.40;65.30;;;;;;;;;;4989589;28;20176;-44
2024/03/02 00:43:19;;;;;;;226.77;66.97;;;;;;;;;;4992423;28;20204;-45
2024/03/02 00:45:45;;;;;;;228.65;70.47;;;;;;;;;;4992166;28;20194;-45
2024/03/02 00:48:11;;;;;;;226.80;66.47;;;;;;;;;;4992777;28;20188;-44
2024/03/02 00:50:37;;;;;;;227.75;67.72;;;;;;;;;;4992906;28;20416;-44
2024/03/02 00:53:03;;;;;;;225.23;66.80;;;;;;;;;;4992371;28;20216;-45
2024/03/02 00:55:29;;;;;;;227.82;66.95;;;;;;;;;;4992275;28;20505;-45
2024/03/02 00:57:55;;;;;;;226.53;67.47;;;;;;;;;;4992714;28;20258;-45
2024/03/02 01:00:21;;;;;;;228.33;70.90;;;;;;;;;;4992733;28;20736;-44
2024/03/02 01:02:47;;;;;;;226.88;67.05;;;;;;;;;;4991059;28;20959;-45
2024/03/02 01:05:13;;;;;;;227.48;68.10;;;;;;;;;;4992554;28;20271;-45
2024/03/02 01:07:39;;;;;;;226.95;67.70;;;;;;;;;;4992357;28;20608;-44
2024/03/02 01:10:07;;;;;;;226.80;65.93;;;;;;;;;;4992316;28;20231;-45
2024/03/02 01:12:33;;;;;;;225.00;65.60;;;;;;;;;;4992351;28;20607;-44
2024/03/02 01:14:59;;;;;;;227.67;67.10;;;;;;;;;;4992064;28;20681;-44
2024/03/02 01:17:25;;;;;;;228.33;69.90;;;;;;;;;;4992186;28;20482;-44
2024/03/02 01:19:51;;;;;;;226.23;66.70;;;;;;;;;;4992130;28;20422;-45
2024/03/02 01:22:19;;;;;;;227.30;69.40;;;;;;;;;;4992038;28;20486;-45
2024/03/02 01:24:45;;;;;;;232.98;73.85;;;;;;;;;;4991579;28;20444;-45
2024/03/02 01:27:11;;;;;;;228.47;69.50;;;;;;;;;;4991810;28;20201;-45
2024/03/02 01:29:37;;;;;;;226.87;67.97;;;;;;;;;;4992075;28;20450;-44
2024/03/02 01:32:03;;;;;;;225.73;67.47;;;;;;;;;;4991959;28;20475;-43
2024/03/02 01:34:29;;;;;;;225.38;65.30;;;;;;;;;;4992217;28;20706;-45
2024/03/02 01:36:55;;;;;;;228.67;68.90;;;;;;;;;;4991591;28;20180;-45
2024/03/02 01:39:21;;;;;;;229.93;69.43;;;;;;;;;;4987684;28;20447;-45
2024/03/02 01:41:47;;;;;;;226.17;66.87;;;;;;;;;;4991929;28;20411;-45
2024/03/02 01:44:13;;;;;;;228.80;70.53;;;;;;;;;;4991844;28;20907;-45
2024/03/02 01:46:39;;;;;;;228.40;67.00;;;;;;;;;;4991490;28;20411;-45
2024/03/02 01:49:06;;;;;;;229.57;68.82;;;;;;;;;;4991658;28;20752;-45
2024/03/02 01:51:32;;;;;;;231.68;73.35;;;;;;;;;;4991509;28;20364;-44
2024/03/02 01:53:58;;;;;;;229.82;69.68;;;;;;;;;;4990268;28;20633;-45
2024/03/02 01:56:24;;;;;;;228.67;71.13;;;;;;;;;;4991657;28;20345;-45
2024/03/02 01:58:50;;;;;;;228.73;68.33;;;;;;;;;;4991572;28;20408;-45
2024/03/02 02:01:16;;;;;;;230.55;72.32;;;;;;;;;;4991258;28;20425;-45
2024/03/02 02:03:42;;;;;;;227.10;67.90;;;;;;;;;;4991198;28;20197;-45
2024/03/02 02:06:08;;;;;;;227.03;69.00;;;;;;;;;;4990753;28;20196;-45
2024/03/02 02:08:34;;;;;;;226.55;67.28;;;;;;;;;;4990521;28;20443;-44
2024/03/02 02:11:00;;;;;;;228.10;69.77;;;;;;;;;;4991398;28;20184;-45
2024/03/02 02:13:26;;;;;;;226.67;69.60;;;;;;;;;;4985365;28;20467;-45
2024/03/02 02:15:52;;;;;;;230.67;72.00;;;;;;;;;;4989199;28;20434;-45
2024/03/02 02:18:20;;;;;;;228.70;70.53;;;;;;;;;;4991574;28;20495;-45
2024/03/02 02:20:46;;;;;;;228.40;70.10;;;;;;;;;;4991302;28;20172;-44
2024/03/02 02:23:13;;;;;;;228.77;69.03;;;;;;;;;;4991357;28;20210;-44
2024/03/02 02:25:39;;;;;;;226.13;66.10;;;;;;;;;;4991101;28;20444;-45
2024/03/02 02:28:05;;;;;;;225.93;67.17;;;;;;;;;;4991185;28;20679;-45
2024/03/02 02:30:32;;;;;;;227.55;68.28;;;;;;;;;;4991365;28;20519;-44
2024/03/02 02:32:58;;;;;;;227.88;68.72;;;;;;;;;;4991067;28;20608;-45
2024/03/02 02:35:24;;;;;;;228.95;69.45;;;;;;;;;;4990871;28;20212;-45
2024/03/02 02:37:51;;;;;;;225.60;68.60;;;;;;;;;;4993113;28;20203;-44
2024/03/02 02:40:18;;;;;;;228.57;69.30;;;;;;;;;;4991044;28;20223;-45
2024/03/02 02:42:44;;;;;;;227.32;68.55;;;;;;;;;;4995178;28;20222;-44
2024/03/02 02:45:13;;;;;;;229.95;71.28;;;;;;;;;;4995246;28;20543;-44
2024/03/02 02:47:39;;;;;;;227.20;68.30;;;;;;;;;;4995017;28;20199;-44
2024/03/02 02:50:05;;;;;;;227.73;69.47;;;;;;;;;;4994805;28;20258;-44
2024/03/02 02:52:33;;;;;;;235.60;75.63;;;;;;;;;;4995359;28;20948;-44
2024/03/02 02:54:59;;;;;;;231.23;71.82;;;;;;;;;;4984375;28;20200;-45
2024/03/02 02:57:26;;;;;;;231.15;72.25;;;;;;;;;;4989077;28;20172;-44
2024/03/02 02:59:52;;;;;;;228.27;70.57;;;;;;;;;;4994813;28;20251;-45
2024/03/02 03:02:18;;;;;;;227.47;67.83;;;;;;;;;;4987333;28;20289;-44
2024/03/02 03:04:44;;;;;;;232.77;74.87;;;;;;;;;;4982761;28;20417;-44
2024/03/02 03:10:13;;;;;;;230.18;71.22;;;;;;;;;;4972552;28;20930;-44
2024/03/02 03:12:40;;;;;;;229.30;69.85;;;;;;;;;;4975805;28;20633;-45
2024/03/02 03:15:08;;;;;;;229.85;71.07;;;;;;;;;;4984156;28;20173;-45
2024/03/02 03:17:34;;;;;;;231.40;71.93;;;;;;;;;;4984438;28;20248;-45
2024/03/02 03:20:01;;;;;;;228.50;68.50;;;;;;;;;;4986035;28;20696;-44
2024/03/02 03:22:27;;;;;;;229.90;68.85;;;;;;;;;;4984844;28;20210;-44
2024/03/02 03:24:53;;;;;;;230.20;69.95;;;;;;;;;;4983277;28;20653;-44
2024/03/02 03:27:22;;;;;;;231.50;72.68;;;;;;;;;;4985617;28;20536;-44
2024/03/02 03:29:48;;;;;;;229.63;68.85;;;;;;;;;;4991752;28;20731;-44
2024/03/02 03:32:14;;;;;;;228.55;70.10;;;;;;;;;;4986923;28;20205;-44
2024/03/02 03:34:40;;;;;;;229.23;68.75;;;;;;;;;;4986180;28;20181;-44
2024/03/02 03:37:06;;;;;;;230.90;70.95;;;;;;;;;;4977306;28;20235;-44
2024/03/02 03:39:32;;;;;;;226.70;67.57;;;;;;;;;;4987040;28;20604;-44
2024/03/02 03:41:58;;;;;;;230.73;70.75;;;;;;;;;;4983677;28;20512;-44
2024/03/02 03:44:24;;;;;;;229.27;68.37;;;;;;;;;;4987587;28;20257;-44
2024/03/02 03:46:50;;;;;;;228.45;71.38;;;;;;;;;;4982868;28;20404;-44
2024/03/02 03:49:16;;;;;;;226.13;68.27;;;;;;;;;;4990046;28;20773;-44
2024/03/02 03:51:42;;;;;;;231.53;71.87;;;;;;;;;;4986958;28;20853;-44
2024/03/02 03:54:08;;;;;;;228.18;70.18;;;;;;;;;;4979057;28;20547;-44
2024/03/02 03:56:34;;;;;;;232.97;74.77;;;;;;;;;;4984535;28;20614;-44
2024/03/02 03:59:00;;;;;;;230.40;72.53;;;;;;;;;;4987790;28;20421;-44
2024/03/02 04:01:26;;;;;;;229.97;72.80;;;;;;;;;;4987298;28;20400;-44
2024/03/02 04:03:52;;;;;;;231.00;73.13;;;;;;;;;;4988914;28;20436;-44
2024/03/02 04:06:18;;;;;;;229.53;70.57;;;;;;;;;;4987397;28;20668;-44
2024/03/02 04:08:44;;;;;;;229.80;72.07;;;;;;;;;;4985071;28;20474;-44
2024/03/02 04:11:10;;;;;;;225.23;66.67;;;;;;;;;;4992122;28;20177;-44
2024/03/02 04:13:36;;;;;;;228.83;70.37;;;;;;;;;;4990612;28;20467;-44
2024/03/02 04:16:03;;;;;;;230.00;73.63;;;;;;;;;;4988069;28;20575;-45
2024/03/02 04:18:29;;;;;;;228.43;71.32;;;;;;;;;;4988179;28;20200;-44
2024/03/02 04:20:55;;;;;;;226.80;68.63;;;;;;;;;;4988198;28;20208;-44
2024/03/02 04:23:21;;;;;;;226.97;67.70;;;;;;;;;;4986226;28;20436;-44
2024/03/02 04:25:47;;;;;;;228.97;72.27;;;;;;;;;;4990899;28;20416;-44
2024/03/02 04:28:13;;;;;;;227.27;68.57;;;;;;;;;;4990832;28;20467;-44
2024/03/02 04:30:39;;;;;;;228.10;68.33;;;;;;;;;;4991007;28;20427;-44
2024/03/02 04:33:07;;;;;;;229.47;72.63;;;;;;;;;;4986697;28;20522;-44
2024/03/02 04:35:33;;;;;;;230.13;70.78;;;;;;;;;;4985811;28;20424;-44
2024/03/02 04:37:59;;;;;;;230.97;73.07;;;;;;;;;;4990274;28;20554;-44
2024/03/02 04:40:25;;;;;;;231.73;72.25;;;;;;;;;;4991350;28;20850;-44
2024/03/02 04:42:51;;;;;;;229.03;70.33;;;;;;;;;;4980899;28;20351;-44
2024/03/02 04:45:17;;;;;;;229.38;69.95;;;;;;;;;;4984987;28;20439;-44
2024/03/02 04:47:43;;;;;;;231.67;72.23;;;;;;;;;;4978753;28;20264;-44
2024/03/02 04:50:10;;;;;;;227.27;71.00;;;;;;;;;;4976847;28;20422;-44
2024/03/02 04:52:36;;;;;;;229.85;71.32;;;;;;;;;;4983469;28;20463;-44
2024/03/02 04:57:47;;;;;;;227.27;71.53;;;;;;;;;;4980353;28;20984;-44
2024/03/02 05:00:13;;;;;;;229.93;73.97;;;;;;;;;;4989262;28;20172;-44
2024/03/02 05:02:39;;;;;;;229.48;70.22;;;;;;;;;;4985412;28;20218;-44
2024/03/02 05:05:05;;;;;;;229.50;72.10;;;;;;;;;;4984491;28;20969;-45
2024/03/02 05:07:31;;;;;;;229.57;70.55;;;;;;;;;;4990702;28;20420;-44
2024/03/02 05:09:57;;;;;;;229.60;70.27;;;;;;;;;;4983431;28;20183;-44
2024/03/02 05:15:08;;;;;;;238.48;78.55;;;;;;;;;;4991952;28;20418;-45
2024/03/02 05:17:34;;;;;;;226.30;67.53;;;;;;;;;;4992348;28;20184;-44
2024/03/02 05:20:00;;;;;;;228.03;69.73;;;;;;;;;;4992338;28;20181;-44
2024/03/02 05:22:25;;;;;;;226.93;67.50;;;;;;;;;;4984124;28;21010;-44
2024/03/02 05:24:52;;;;;;;227.60;68.40;;;;;;;;;;4983985;28;20413;-44
2024/03/02 05:27:18;;;;;;;226.38;67.00;;;;;;;;;;4991697;28;20450;-44
2024/03/02 05:29:43;;;;;;;229.20;69.67;;;;;;;;;;4983905;28;20182;-44
2024/03/02 05:32:09;;;;;;;222.73;63.90;;;;;;;;;;4991812;28;20436;-43
2024/03/02 05:34:35;;;;;;;226.73;68.72;;;;;;;;;;4992008;28;20495;-44
2024/03/02 05:37:02;;;;;;;228.37;70.67;;;;;;;;;;4983589;28;20441;-44
2024/03/02 05:39:28;;;;;;;227.73;69.47;;;;;;;;;;4977816;28;20851;-44
2024/03/02 05:41:54;;;;;;;228.77;70.40;;;;;;;;;;4982014;28;20635;-44
2024/03/02 05:44:20;;;;;;;224.33;66.63;;;;;;;;;;4991973;28;20490;-44
2024/03/02 05:46:46;;;;;;;229.23;72.57;;;;;;;;;;4991303;28;20439;-45
2024/03/02 05:49:12;;;;;;;229.90;71.43;;;;;;;;;;4987733;28;20416;-44
2024/03/02 05:51:38;;;;;;;226.07;67.17;;;;;;;;;;4987647;28;20176;-44
2024/03/02 05:54:04;;;;;;;228.37;69.90;;;;;;;;;;4992029;28;20558;-44
2024/03/02 05:56:30;;;;;;;229.30;71.87;;;;;;;;;;4984878;28;20409;-44
2024/03/02 05:59:12;;;;;;;225.73;66.63;;;;;;;;;;4990101;28;20455;-44
2024/03/02 06:01:41;;;;;;;225.00;67.15;;;;;;;;;;4991559;28;20415;-44
2024/03/02 06:04:07;;;;;;;227.25;70.65;;;;;;;;;;4987624;28;20181;-44
2024/03/02 06:06:33;;;;;;;227.67;70.57;;;;;;;;;;4991333;28;20190;-44
2024/03/02 06:09:05;;;;;;;227.65;69.50;;;;;;;;;;4991860;28;20415;-44
2024/03/02 06:11:31;;;;;;;228.00;70.53;;;;;;;;;;4990563;28;20235;-44
2024/03/02 06:13:57;;;;;;;227.73;69.73;;;;;;;;;;4983314;28;20238;-44
2024/03/02 06:16:23;;;;;;;224.93;67.70;;;;;;;;;;4991162;28;20415;-44
2024/03/02 06:18:49;;;;;;;231.30;73.47;;;;;;;;;;4991681;28;20410;-44
2024/03/02 06:21:15;;;;;;;226.60;68.00;;;;;;;;;;4983404;28;20178;-44
2024/03/02 06:23:41;;;;;;;227.27;70.13;;;;;;;;;;4991395;28;20435;-44
2024/03/02 06:26:07;;;;;;;226.50;67.37;;;;;;;;;;4987935;28;20499;-44
2024/03/02 06:28:33;;;;;;;222.73;63.17;;;;;;;;;;4986888;28;20440;-45
2024/03/02 06:30:59;;;;;;;229.57;72.50;;;;;;;;;;4989016;28;20215;-44
2024/03/02 06:33:25;;;;;;;224.47;67.47;;;;;;;;;;4971841;28;21001;-44
2024/03/02 06:35:51;;;;;;;227.73;69.40;;;;;;;;;;4988750;28;20491;-44
2024/03/02 06:38:17;;;;;;;224.95;66.90;;;;;;;;;;4986784;28;20835;-44
2024/03/02 06:40:43;;;;;;;230.17;72.53;;;;;;;;;;4987864;28;20173;-44
2024/03/02 06:43:09;;;;;;;224.33;66.17;;;;;;;;;;4991170;28;20435;-44
2024/03/02 06:45:35;;;;;;;227.50;69.05;;;;;;;;;;4983924;28;20940;-44
2024/03/02 06:48:01;;;;;;;226.77;68.22;;;;;;;;;;4990427;28;20271;-44
2024/03/02 06:50:27;;;;;;;225.93;68.45;;;;;;;;;;4991324;28;20251;-44
2024/03/02 06:52:53;;;;;;;228.13;70.67;;;;;;;;;;4974720;28;20581;-44
2024/03/02 06:55:19;;;;;;;230.27;73.65;;;;;;;;;;4991429;28;20404;-44
2024/03/02 06:57:45;;;;;;;232.07;76.53;;;;;;;;;;4983179;28;20174;-44
2024/03/02 07:00:12;;;;;;;230.73;72.20;;;;;;;;;;4983051;28;20591;-44
2024/03/02 07:02:40;;;;;;;229.65;69.78;;;;;;;;;;4991405;28;20432;-44
2024/03/02 07:05:07;;;;;;;231.23;71.63;;;;;;;;;;4986484;28;20176;-44
2024/03/02 07:07:34;;;;;;;232.95;75.75;;;;;;;;;;4991000;28;20179;-44
2024/03/02 07:10:00;;;;;;;229.68;68.70;;;;;;;;;;4983101;28;20187;-44
2024/03/02 07:12:26;;;;;;;226.30;65.80;;;;;;;;;;4991183;28;20291;-44
2024/03/02 07:15:11;;;;;;;235.45;76.53;;;;;;;;;;4989647;28;20771;-45
2024/03/02 07:17:37;;;;;;;230.32;71.85;;;;;;;;;;4987218;28;20168;-45
2024/03/02 07:20:03;;;;;;;232.50;72.95;;;;;;;;;;4982849;28;20183;-44
2024/03/02 07:22:29;;;;;;;232.75;71.82;;;;;;;;;;4990834;28;20684;-44
2024/03/02 07:24:55;;;;;;;237.82;76.32;;;;;;;;;;4985912;28;20186;-45
2024/03/02 07:27:21;;;;;;;232.10;71.70;;;;;;;;;;4986256;28;20223;-44
2024/03/02 07:29:47;;;;;;;234.07;72.13;;;;;;;;;;4993518;28;20492;-44
2024/03/02 07:32:13;;;;;;;237.27;75.95;;;;;;;;;;4987321;28;20193;-44
2024/03/02 07:34:39;;;;;;;235.17;72.10;;;;;;;;;;4986698;28;20244;-45
2024/03/02 07:37:05;;;;;;;232.33;70.63;;;;;;;;;;4993677;28;20446;-44
2024/03/02 07:39:31;;;;;;;233.37;69.43;;;;;;;;;;4987591;28;20493;-44
2024/03/02 07:41:57;;;;;;;239.00;72.68;;;;;;;;;;4992645;28;20433;-44
2024/03/02 07:44:24;;;;;;;239.60;72.05;;;;;;;;;;4988526;28;20176;-45
2024/03/02 07:46:50;;;;;;;239.95;75.53;;;;;;;;;;4983135;28;20259;-45
2024/03/02 07:49:16;;;;;;;233.98;69.72;;;;;;;;;;4989602;28;20521;-44
2024/03/02 07:51:42;;;;;;;236.82;72.40;;;;;;;;;;4990329;28;20206;-44
2024/03/02 07:54:08;;;;;;;237.07;71.97;;;;;;;;;;4985885;28;20281;-45
2024/03/02 07:56:35;;;;;;;239.63;71.15;;;;;;;;;;4986028;28;20251;-45
2024/03/02 07:59:01;;;;;;;236.57;71.00;;;;;;;;;;4985743;28;20591;-44
2024/03/02 08:01:31;;;;;;;239.85;73.75;;;;;;;;;;4993582;28;20183;-45
2024/03/02 08:04:03;;;;;;;240.90;77.50;;;;;;;;;;4985476;28;20221;-45
2024/03/02 08:06:30;;;;;;;237.70;75.65;;;;;;;;;;4985272;28;20177;-45
2024/03/02 08:08:56;;;;;;;240.45;76.47;;;;;;;;;;4993536;28;20273;-45
2024/03/02 08:11:22;;;;;;;234.27;69.95;;;;;;;;;;4993624;28;20184;-44
2024/03/02 08:13:48;;;;;;;239.27;73.93;;;;;;;;;;4993201;28;20745;-45
2024/03/02 08:16:20;;;;;;;239.68;77.25;;;;;;;;;;4993291;28;20546;-44
2024/03/02 08:18:50;;;;;;;235.80;71.22;;;;;;;;;;4992946;28;20174;-45
2024/03/02 08:21:16;;;;;;;234.43;69.65;;;;;;;;;;4977235;28;20664;-44
2024/03/02 08:23:42;;;;;;;241.20;77.10;;;;;;;;;;4976370;28;20681;-45
2024/03/02 08:26:09;;;;;;;238.02;71.70;;;;;;;;;;4989319;28;20668;-45
2024/03/02 08:28:36;;;;;;;244.57;77.47;;;;;;;;;;4980628;28;20181;-45
2024/03/02 08:31:02;;;;;;;239.93;73.03;;;;;;;;;;4981808;28;20177;-45
2024/03/02 08:33:28;;;;;;;241.57;75.60;;;;;;;;;;4973730;28;20341;-45
2024/03/02 08:35:54;;;;;;;238.00;72.53;;;;;;;;;;4990099;28;20894;-45
2024/03/02 08:38:21;;;;;;;238.97;72.90;;;;;;;;;;4987772;28;20412;-45
2024/03/02 08:40:47;;;;;;;237.18;71.60;;;;;;;;;;4993452;28;20415;-45
2024/03/02 08:43:13;;;;;;;241.33;76.57;;;;;;;;;;4992598;28;20204;-45
2024/03/02 08:45:39;;;;;;;242.63;79.10;;;;;;;;;;4992501;28;20453;-45
2024/03/02 08:48:06;;;;;;;238.82;72.15;;;;;;;;;;4984573;28;20934;-44
2024/03/02 08:50:32;;;;;;;238.45;73.22;;;;;;;;;;4989184;28;20187;-44
2024/03/02 08:52:57;;;;;;;241.50;75.93;;;;;;;;;;4991025;28;20219;-45
2024/03/02 08:55:23;;;;;;;243.07;79.13;;;;;;;;;;4986528;28;20483;-45
2024/03/02 08:57:50;;;;;;;242.77;76.47;;;;;;;;;;4983588;28;20451;-44
2024/03/02 09:00:17;;;;;;;243.00;75.35;;;;;;;;;;4986554;28;20409;-45
2024/03/02 09:02:44;;;;;;;242.68;76.70;;;;;;;;;;4976584;28;20556;-45
2024/03/02 09:05:10;;;;;;;242.63;78.15;;;;;;;;;;4987518;28;20259;-45
2024/03/02 09:07:38;;;;;;;242.70;79.50;;;;;;;;;;4983823;28;20182;-45
2024/03/02 09:10:04;;;;;;;236.95;73.93;;;;;;;;;;4980980;28;20186;-44
2024/03/02 09:12:30;;;;;;;239.13;76.38;;;;;;;;;;4991814;28;20824;-44
2024/03/02 09:14:57;;;;;;;246.65;81.20;;;;;;;;;;4990604;28;20177;-44
2024/03/02 09:17:23;;;;;;;243.45;79.97;;;;;;;;;;4978088;28;20172;-45
2024/03/02 09:19:52;;;;;;;245.70;78.97;;;;;;;;;;4991974;28;20178;-45
2024/03/02 09:22:18;;;;;;;248.70;81.50;;;;;;;;;;4991152;28;20431;-45
2024/03/02 09:24:44;;;;;;;248.73;86.23;;;;;;;;;;4991712;28;20440;-45
2024/03/02 09:27:10;;;;;;;251.33;89.23;;;;;;;;;;4974112;28;20437;-45
2024/03/02 09:29:36;;;;;;;245.17;82.23;;;;;;;;;;4987958;28;20412;-45
2024/03/02 09:32:02;;;;;;;245.37;81.17;;;;;;;;;;4992234;28;20789;-45
2024/03/02 09:34:28;;;;;;;248.50;83.77;;;;;;;;;;4992051;28;20851;-45
2024/03/02 09:36:54;;;;;;;252.87;89.83;;;;;;;;;;4983629;28;20432;-45
2024/03/02 09:39:20;;;;;;;254.90;89.30;;;;;;;;;;4983864;28;20948;-45
2024/03/02 09:41:46;;;;;;;256.27;92.80;;;;;;;;;;4991626;28;20447;-46
2024/03/02 09:44:12;;;;;;;254.63;91.17;;;;;;;;;;4983790;28;20478;-46
2024/03/02 09:46:38;;;;;;;257.73;99.13;;;;;;;;;;4991424;28;20412;-46
2024/03/02 09:49:04;;;;;;;255.70;95.87;;;;;;;;;;4991840;28;20412;-46
2024/03/02 09:51:31;;;;;;;254.37;92.73;;;;;;;;;;4991705;28;20783;-45
2024/03/02 09:53:57;;;;;;;255.10;95.07;;;;;;;;;;4991536;28;20549;-45
2024/03/02 09:56:23;;;;;;;255.73;95.57;;;;;;;;;;4983235;28;20400;-45
2024/03/02 09:58:49;;;;;;;256.10;95.27;;;;;;;;;;4983605;28;20751;-45
2024/03/02 10:01:15;;;;;;;256.50;100.77;;;;;;;;;;4991582;28;20419;-45
2024/03/02 10:03:41;;;;;;;254.80;96.43;;;;;;;;;;4991522;28;20498;-45
2024/03/02 10:06:20;;;;;;;256.03;93.83;;;;;;;;;;4983322;28;20419;-46
2024/03/02 10:08:47;;;;;;;256.80;99.57;;;;;;;;;;4991499;28;20411;-45
2024/03/02 10:11:27;;;;;;;256.37;100.03;;;;;;;;;;4979739;28;20409;-45
2024/03/02 10:14:04;;;;;;;257.93;103.33;;;;;;;;;;4981335;28;20462;-45
2024/03/02 10:16:30;;;;;;;256.93;100.93;;;;;;;;;;4976948;28;20416;-46
2024/03/02 10:18:56;;;;;;;253.77;94.13;;;;;;;;;;4989878;28;20416;-45
2024/03/02 10:21:24;;;;;;;257.57;101.63;;;;;;;;;;4991210;28;20507;-45
2024/03/02 10:23:50;;;;;;;256.80;101.13;;;;;;;;;;4982292;28;20436;-45
2024/03/02 10:26:19;;;;;;;255.37;98.00;;;;;;;;;;4976166;28;20408;-45
2024/03/02 10:28:48;;;;;;;257.20;102.23;;;;;;;;;;4982826;28;20417;-45
2024/03/02 10:31:14;;;;;;;256.33;99.53;;;;;;;;;;4976269;28;20906;-45
2024/03/02 10:33:40;;;;;;;253.93;96.23;;;;;;;;;;4991130;28;21029;-45
2024/03/02 10:36:06;;;;;;;253.30;96.27;;;;;;;;;;4991136;28;20436;-45
2024/03/02 10:38:32;;;;;;;253.97;96.77;;;;;;;;;;4991433;28;20416;-45
2024/03/02 10:40:59;;;;;;;258.90;102.17;;;;;;;;;;4991121;28;20434;-45
2024/03/02 10:43:26;;;;;;;256.33;98.27;;;;;;;;;;4991154;28;20432;-45
2024/03/02 10:45:53;;;;;;;260.83;105.90;;;;;;;;;;4982869;28;20417;-45
2024/03/02 10:48:21;;;;;;;255.83;97.83;;;;;;;;;;4982924;28;20450;-45
2024/03/02 10:50:47;;;;;;;256.53;101.17;;;;;;;;;;4982602;28;20475;-45
2024/03/02 10:53:13;;;;;;;256.97;101.37;;;;;;;;;;4984010;28;20469;-45
2024/03/02 10:55:39;;;;;;;258.37;102.93;;;;;;;;;;4975872;28;20426;-45
2024/03/02 10:58:06;;;;;;;258.43;103.03;;;;;;;;;;4980657;28;20426;-45
2024/03/02 11:00:34;;;;;;;261.97;106.30;;;;;;;;;;4985166;28;20550;-45
2024/03/02 11:03:08;;;;;;;258.63;105.10;;;;;;;;;;4993410;28;20829;-45
2024/03/02 11:05:37;;;;;;;260.47;105.53;;;;;;;;;;4984034;28;20498;-45
2024/03/02 11:08:05;;;;;;;262.03;109.93;;;;;;;;;;4993131;28;20433;-45
2024/03/02 11:10:36;;;;;;;255.90;100.70;;;;;;;;;;4995098;28;20904;-45
2024/03/02 11:13:04;;;;;;;260.53;109.63;;;;;;;;;;4991855;28;20551;-45
2024/03/02 11:15:30;;;;;;;259.50;107.00;;;;;;;;;;4989380;28;20892;-45
2024/03/02 11:17:57;;;;;;;253.20;93.90;;;;;;;;;;4986722;28;20416;-45
2024/03/02 11:20:24;;;;;;;256.33;101.60;;;;;;;;;;4989020;28;20460;-45
2024/03/02 11:22:50;;;;;;;256.53;101.97;;;;;;;;;;4990890;28;20658;-46
2024/03/02 11:25:26;;;;;;;263.70;112.37;;;;;;;;;;4979186;28;20904;-45
2024/03/02 11:27:55;;;;;;;259.13;106.17;;;;;;;;;;4984726;28;20412;-45
2024/03/02 11:30:33;;;;;;;267.83;116.73;;;;;;;;;;4979595;28;20422;-45
2024/03/02 11:33:09;;;;;;;255.37;99.87;;;;;;;;;;4993858;28;20870;-45
2024/03/02 11:35:35;;;;;;;257.23;108.00;;;;;;;;;;4986895;28;20475;-45
2024/03/02 11:38:03;;;;;;;258.23;104.63;;;;;;;;;;4993383;28;20408;-45
2024/03/02 11:40:29;;;;;;;259.30;109.17;;;;;;;;;;4994453;28;20418;-45
2024/03/02 11:42:55;;;;;;;256.20;103.57;;;;;;;;;;4994128;28;20438;-46
2024/03/02 11:45:27;;;;;;;260.77;113.20;;;;;;;;;;4993865;28;20506;-45
2024/03/02 11:47:57;;;;;;;264.00;113.73;;;;;;;;;;4969983;28;20413;-45
2024/03/02 11:50:44;;;;;;;256.80;103.93;;;;;;;;;;4984117;28;20426;-46
2024/03/02 11:53:12;;;;;;;263.77;114.37;;;;;;;;;;4993048;28;20510;-46
2024/03/02 11:55:46;;;;;;;262.23;114.73;;;;;;;;;;4984985;28;20419;-45
2024/03/02 11:58:12;;;;;;;260.10;108.20;;;;;;;;;;4985793;28;20400;-45
2024/03/02 12:00:38;;;;;;;258.60;107.87;;;;;;;;;;4993427;28;20409;-45
2024/03/02 12:03:06;;;;;;;260.40;108.17;;;;;;;;;;4981767;28;20773;-45
2024/03/02 12:05:32;;;;;;;257.23;101.00;;;;;;;;;;4988444;28;20849;-45
2024/03/02 12:07:59;;;;;;;260.00;105.43;;;;;;;;;;4977418;28;20908;-45
2024/03/02 12:10:25;;;;;;;262.10;112.17;;;;;;;;;;4993485;28;20419;-45
2024/03/02 12:12:58;;;;;;;259.00;103.60;;;;;;;;;;4993306;28;20478;-45
2024/03/02 12:15:27;;;;;;;258.20;104.77;;;;;;;;;;4987774;28;20932;-45
2024/03/02 12:17:57;;;;;;;261.50;104.03;;;;;;;;;;4967581;28;20422;-45
2024/03/02 12:20:23;;;;;;;259.00;102.83;;;;;;;;;;4984290;28;20481;-45
2024/03/02 12:22:53;;;;;;;268.40;114.73;;;;;;;;;;4993178;28;20428;-45
2024/03/02 12:25:23;;;;;;;264.50;107.80;;;;;;;;;;4980024;28;20491;-45
2024/03/02 12:27:50;;;;;;;258.10;100.47;;;;;;;;;;4981537;28;20539;-45
2024/03/02 12:30:19;;;;;;;256.97;101.70;;;;;;;;;;4985994;28;20961;-45
2024/03/02 12:32:46;;;;;;;256.63;98.50;;;;;;;;;;4984890;28;20462;-45
2024/03/02 12:35:15;;;;;;;261.87;105.63;;;;;;;;;;4989169;28;20703;-45
2024/03/02 12:37:50;;;;;;;257.03;99.43;;;;;;;;;;4984886;28;20412;-45
2024/03/02 12:40:18;;;;;;;254.97;93.07;;;;;;;;;;4979509;28;20404;-44
2024/03/02 12:42:44;;;;;;;257.20;96.50;;;;;;;;;;4992600;28;20805;-44
2024/03/02 12:45:10;;;;;;;264.60;104.77;;;;;;;;;;4988771;28;20760;-44
2024/03/02 12:47:37;;;;;;;258.20;98.63;;;;;;;;;;4988609;28;20416;-44
2024/03/02 12:50:04;;;;;;;254.70;90.53;;;;;;;;;;4969148;28;20428;-45
2024/03/02 12:52:32;;;;;;;253.67;92.17;;;;;;;;;;4981419;28;20480;-45
2024/03/02 12:54:58;;;;;;;256.93;95.60;;;;;;;;;;4988206;28;20503;-45
2024/03/02 12:57:27;;;;;;;255.07;94.87;;;;;;;;;;4986703;28;20788;-45
2024/03/02 12:59:57;;;;;;;260.37;98.33;;;;;;;;;;4991726;28;20430;-44
2024/03/02 13:02:23;;;;;;;260.57;100.37;;;;;;;;;;4992301;28;20428;-44
2024/03/02 13:04:55;;;;;;;258.87;95.57;;;;;;;;;;4975702;28;20411;-44
2024/03/02 13:07:22;;;;;;;258.47;98.27;;;;;;;;;;4978484;28;20410;-45
2024/03/02 13:09:48;;;;;;;256.83;97.53;;;;;;;;;;4976313;28;20476;-45
2024/03/02 13:12:16;;;;;;;251.48;91.43;;;;;;;;;;4988078;28;20613;-44
2024/03/02 13:14:42;;;;;;;249.73;88.28;;;;;;;;;;4973154;28;20177;-44
2024/03/02 13:17:13;;;;;;;250.77;86.83;;;;;;;;;;4976036;28;20180;-44
2024/03/02 13:19:43;;;;;;;250.27;90.33;;;;;;;;;;4992120;28;20406;-44
2024/03/02 13:22:09;;;;;;;249.53;90.83;;;;;;;;;;4991590;28;20802;-44
2024/03/02 13:24:36;;;;;;;251.80;93.37;;;;;;;;;;4991906;28;20412;-44
2024/03/02 13:27:03;;;;;;;252.83;94.27;;;;;;;;;;4991919;28;20911;-44
2024/03/02 13:29:29;;;;;;;251.67;91.40;;;;;;;;;;4984029;28;20923;-44
2024/03/02 13:31:57;;;;;;;251.00;87.80;;;;;;;;;;4990191;28;20430;-44
2024/03/02 13:34:23;;;;;;;252.90;91.13;;;;;;;;;;4977963;28;20465;-44
2024/03/02 13:36:49;;;;;;;255.30;93.63;;;;;;;;;;4983588;28;20484;-44
2024/03/02 13:39:15;;;;;;;248.80;85.20;;;;;;;;;;4991787;28;20400;-44
2024/03/02 13:41:41;;;;;;;254.50;91.37;;;;;;;;;;4991835;28;20426;-44
2024/03/02 13:44:07;;;;;;;248.70;83.87;;;;;;;;;;4988503;28;20935;-44
2024/03/02 13:46:33;;;;;;;257.53;92.90;;;;;;;;;;4985946;28;20404;-44
2024/03/02 13:48:59;;;;;;;261.03;93.80;;;;;;;;;;4981937;28;20456;-44
2024/03/02 13:51:25;;;;;;;258.73;86.20;;;;;;;;;;4980388;28;20405;-45
2024/03/02 13:53:51;;;;;;;264.05;90.93;;;;;;;;;;4981149;28;20503;-45
2024/03/02 13:56:17;;;;;;;252.43;85.13;;;;;;;;;;4987197;28;20184;-44
2024/03/02 13:58:45;;;;;;;250.95;82.68;;;;;;;;;;4988321;28;20569;-44
2024/03/02 14:01:11;;;;;;;252.65;84.57;;;;;;;;;;4991785;28;20177;-44
2024/03/02 14:03:37;;;;;;;250.70;84.50;;;;;;;;;;4982059;28;20210;-45
2024/03/02 14:06:04;;;;;;;250.23;83.90;;;;;;;;;;4982704;28;20505;-44
2024/03/02 14:08:29;;;;;;;247.13;80.95;;;;;;;;;;4991416;28;20408;-45
2024/03/02 14:11:00;;;;;;;252.20;88.90;;;;;;;;;;4982051;28;20656;-45